sensor_id;sensor_type;location;lat;lon;timestamp;P1;durP1;ratioP1;P2;durP2;ratioP2
19812;SDS011;10066;48.108;11.448;2023-11-21T00:01:12;3.37;;;1.10;;
19812;SDS011;10066;48.108;11.448;2023-11-21T00:03:39;8.30;;;1.33;;
19812;SDS011;10066;48.108;11.448;2023-11-21T00:06:06;5.67;;;1.40;;
19812;SDS011;10066;48.108;11.448;2023-11-21T00:08:34;4.27;;;1.17;;
19812;SDS011;10066;48.108;11.448;2023-11-21T00:11:03;5.40;;;1.03;;
19812;SDS011;10066;48.108;11.448;2023-11-21T00:13:31;6.17;;;1.33;;
19812;SDS011;10066;48.108;11.448;2023-11-21T00:15:58;9.23;;;1.30;;
19812;SDS011;10066;48.108;11.448;2023-11-21T00:18:25;5.23;;;1.30;;
19812;SDS011;10066;48.108;11.448;2023-11-21T00:20:52;6.53;;;1.57;;
19812;SDS011;10066;48.108;11.448;2023-11-21T00:23:19;7.30;;;0.93;;
19812;SDS011;10066;48.108;11.448;2023-11-21T00:25:46;5.13;;;1.20;;
19812;SDS011;10066;48.108;11.448;2023-11-21T00:28:14;8.77;;;1.00;;
19812;SDS011;10066;48.108;11.448;2023-11-21T00:30:41;7.97;;;1.57;;
19812;SDS011;10066;48.108;11.448;2023-11-21T00:33:08;3.50;;;1.20;;
19812;SDS011;10066;48.108;11.448;2023-11-21T00:35:35;8.20;;;1.70;;
19812;SDS011;10066;48.108;11.448;2023-11-21T00:38:02;4.00;;;1.10;;
19812;SDS011;10066;48.108;11.448;2023-11-21T00:40:29;4.30;;;0.80;;
19812;SDS011;10066;48.108;11.448;2023-11-21T00:42:56;3.40;;;0.90;;
19812;SDS011;10066;48.108;11.448;2023-11-21T00:45:26;2.83;;;0.80;;
19812;SDS011;10066;48.108;11.448;2023-11-21T00:47:53;4.00;;;0.90;;
19812;SDS011;10066;48.108;11.448;2023-11-21T00:50:19;4.00;;;0.90;;
19812;SDS011;10066;48.108;11.448;2023-11-21T00:52:47;6.17;;;1.30;;
19812;SDS011;10066;48.108;11.448;2023-11-21T00:55:17;5.53;;;1.00;;
19812;SDS011;10066;48.108;11.448;2023-11-21T00:57:44;5.77;;;1.00;;
19812;SDS011;10066;48.108;11.448;2023-11-21T01:00:11;3.60;;;0.90;;
19812;SDS011;10066;48.108;11.448;2023-11-21T01:02:43;4.07;;;0.97;;
19812;SDS011;10066;48.108;11.448;2023-11-21T01:05:10;4.77;;;1.20;;
19812;SDS011;10066;48.108;11.448;2023-11-21T01:07:37;4.97;;;1.00;;
19812;SDS011;10066;48.108;11.448;2023-11-21T01:10:04;5.27;;;0.97;;
19812;SDS011;10066;48.108;11.448;2023-11-21T01:12:32;3.23;;;1.00;;
19812;SDS011;10066;48.108;11.448;2023-11-21T01:15:00;5.43;;;1.20;;
19812;SDS011;10066;48.108;11.448;2023-11-21T01:17:27;4.77;;;1.10;;
19812;SDS011;10066;48.108;11.448;2023-11-21T01:19:55;4.87;;;1.00;;
19812;SDS011;10066;48.108;11.448;2023-11-21T01:22:22;6.40;;;1.30;;
19812;SDS011;10066;48.108;11.448;2023-11-21T01:24:51;5.77;;;1.10;;
19812;SDS011;10066;48.108;11.448;2023-11-21T01:27:18;5.60;;;1.43;;
19812;SDS011;10066;48.108;11.448;2023-11-21T01:29:45;5.67;;;1.27;;
19812;SDS011;10066;48.108;11.448;2023-11-21T01:32:11;6.37;;;1.10;;
19812;SDS011;10066;48.108;11.448;2023-11-21T01:34:38;5.13;;;1.00;;
19812;SDS011;10066;48.108;11.448;2023-11-21T01:37:07;6.30;;;1.43;;
19812;SDS011;10066;48.108;11.448;2023-11-21T01:39:37;3.87;;;1.10;;
19812;SDS011;10066;48.108;11.448;2023-11-21T01:42:04;5.00;;;1.20;;
19812;SDS011;10066;48.108;11.448;2023-11-21T01:44:32;6.03;;;1.40;;
19812;SDS011;10066;48.108;11.448;2023-11-21T01:46:59;4.03;;;1.00;;
19812;SDS011;10066;48.108;11.448;2023-11-21T01:49:30;3.13;;;1.17;;
19812;SDS011;10066;48.108;11.448;2023-11-21T01:51:58;5.10;;;1.10;;
19812;SDS011;10066;48.108;11.448;2023-11-21T01:54:27;7.57;;;1.00;;
19812;SDS011;10066;48.108;11.448;2023-11-21T01:56:56;3.77;;;1.00;;
19812;SDS011;10066;48.108;11.448;2023-11-21T01:59:28;8.43;;;1.70;;
19812;SDS011;10066;48.108;11.448;2023-11-21T02:01:57;7.80;;;1.17;;
19812;SDS011;10066;48.108;11.448;2023-11-21T02:04:24;2.77;;;1.13;;
19812;SDS011;10066;48.108;11.448;2023-11-21T02:06:51;5.20;;;1.00;;
19812;SDS011;10066;48.108;11.448;2023-11-21T02:09:22;5.73;;;1.20;;
19812;SDS011;10066;48.108;11.448;2023-11-21T02:11:52;6.93;;;1.37;;
19812;SDS011;10066;48.108;11.448;2023-11-21T02:14:19;4.10;;;1.43;;
19812;SDS011;10066;48.108;11.448;2023-11-21T02:16:47;6.63;;;1.00;;
19812;SDS011;10066;48.108;11.448;2023-11-21T02:19:15;6.30;;;1.17;;
19812;SDS011;10066;48.108;11.448;2023-11-21T02:21:47;6.77;;;1.57;;
19812;SDS011;10066;48.108;11.448;2023-11-21T02:24:18;6.30;;;1.50;;
19812;SDS011;10066;48.108;11.448;2023-11-21T02:26:45;5.43;;;1.53;;
19812;SDS011;10066;48.108;11.448;2023-11-21T02:29:12;7.13;;;1.43;;
19812;SDS011;10066;48.108;11.448;2023-11-21T02:31:41;4.53;;;1.57;;
19812;SDS011;10066;48.108;11.448;2023-11-21T02:34:13;5.73;;;1.20;;
19812;SDS011;10066;48.108;11.448;2023-11-21T02:36:40;4.93;;;1.67;;
19812;SDS011;10066;48.108;11.448;2023-11-21T02:39:07;5.57;;;1.20;;
19812;SDS011;10066;48.108;11.448;2023-11-21T02:41:36;5.73;;;1.10;;
19812;SDS011;10066;48.108;11.448;2023-11-21T02:44:04;3.27;;;0.97;;
19812;SDS011;10066;48.108;11.448;2023-11-21T02:46:32;2.80;;;0.97;;
19812;SDS011;10066;48.108;11.448;2023-11-21T02:49:00;4.03;;;1.00;;
19812;SDS011;10066;48.108;11.448;2023-11-21T02:51:27;3.23;;;0.80;;
19812;SDS011;10066;48.108;11.448;2023-11-21T02:53:54;4.00;;;1.00;;
19812;SDS011;10066;48.108;11.448;2023-11-21T02:56:23;4.37;;;1.07;;
19812;SDS011;10066;48.108;11.448;2023-11-21T02:58:52;5.23;;;1.00;;
19812;SDS011;10066;48.108;11.448;2023-11-21T03:01:19;3.77;;;1.20;;
19812;SDS011;10066;48.108;11.448;2023-11-21T03:03:46;5.40;;;1.00;;
19812;SDS011;10066;48.108;11.448;2023-11-21T03:06:16;5.50;;;1.10;;
19812;SDS011;10066;48.108;11.448;2023-11-21T03:08:43;3.60;;;0.97;;
19812;SDS011;10066;48.108;11.448;2023-11-21T03:11:09;4.63;;;0.93;;
19812;SDS011;10066;48.108;11.448;2023-11-21T03:13:37;5.27;;;1.10;;
19812;SDS011;10066;48.108;11.448;2023-11-21T03:16:08;4.70;;;0.90;;
19812;SDS011;10066;48.108;11.448;2023-11-21T03:18:35;5.37;;;1.50;;
19812;SDS011;10066;48.108;11.448;2023-11-21T03:21:02;4.33;;;1.37;;
19812;SDS011;10066;48.108;11.448;2023-11-21T03:23:30;3.13;;;0.93;;
19812;SDS011;10066;48.108;11.448;2023-11-21T03:25:57;3.67;;;1.20;;
19812;SDS011;10066;48.108;11.448;2023-11-21T03:28:24;5.53;;;1.10;;
19812;SDS011;10066;48.108;11.448;2023-11-21T03:30:51;4.87;;;1.10;;
19812;SDS011;10066;48.108;11.448;2023-11-21T03:33:20;3.37;;;0.80;;
19812;SDS011;10066;48.108;11.448;2023-11-21T03:35:47;5.67;;;0.93;;
19812;SDS011;10066;48.108;11.448;2023-11-21T03:38:14;6.60;;;1.37;;
19812;SDS011;10066;48.108;11.448;2023-11-21T03:40:41;5.23;;;1.20;;
19812;SDS011;10066;48.108;11.448;2023-11-21T03:43:08;6.20;;;0.90;;
19812;SDS011;10066;48.108;11.448;2023-11-21T03:45:35;6.07;;;1.10;;
19812;SDS011;10066;48.108;11.448;2023-11-21T03:48:02;5.57;;;0.90;;
19812;SDS011;10066;48.108;11.448;2023-11-21T03:50:30;6.23;;;0.87;;
19812;SDS011;10066;48.108;11.448;2023-11-21T03:52:57;2.40;;;0.80;;
19812;SDS011;10066;48.108;11.448;2023-11-21T03:55:24;8.97;;;1.63;;
19812;SDS011;10066;48.108;11.448;2023-11-21T03:57:50;3.73;;;1.00;;
19812;SDS011;10066;48.108;11.448;2023-11-21T04:00:18;3.33;;;1.07;;
19812;SDS011;10066;48.108;11.448;2023-11-21T04:02:46;3.53;;;0.80;;
19812;SDS011;10066;48.108;11.448;2023-11-21T04:05:12;2.13;;;0.60;;
19812;SDS011;10066;48.108;11.448;2023-11-21T04:07:41;2.07;;;0.80;;
19812;SDS011;10066;48.108;11.448;2023-11-21T04:10:08;4.77;;;0.90;;
19812;SDS011;10066;48.108;11.448;2023-11-21T04:12:37;3.70;;;1.00;;
19812;SDS011;10066;48.108;11.448;2023-11-21T04:15:04;3.33;;;0.87;;
19812;SDS011;10066;48.108;11.448;2023-11-21T04:17:33;5.90;;;0.70;;
19812;SDS011;10066;48.108;11.448;2023-11-21T04:20:01;3.60;;;0.90;;
19812;SDS011;10066;48.108;11.448;2023-11-21T04:22:33;2.83;;;0.90;;
19812;SDS011;10066;48.108;11.448;2023-11-21T04:25:01;1.73;;;0.80;;
19812;SDS011;10066;48.108;11.448;2023-11-21T04:27:28;7.23;;;1.07;;
19812;SDS011;10066;48.108;11.448;2023-11-21T04:29:55;5.30;;;0.80;;
19812;SDS011;10066;48.108;11.448;2023-11-21T04:32:22;4.50;;;0.70;;
19812;SDS011;10066;48.108;11.448;2023-11-21T04:34:50;3.57;;;0.80;;
19812;SDS011;10066;48.108;11.448;2023-11-21T04:37:17;5.63;;;1.30;;
19812;SDS011;10066;48.108;11.448;2023-11-21T04:39:44;3.33;;;0.83;;
19812;SDS011;10066;48.108;11.448;2023-11-21T04:42:12;4.17;;;0.90;;
19812;SDS011;10066;48.108;11.448;2023-11-21T04:44:39;2.03;;;0.60;;
19812;SDS011;10066;48.108;11.448;2023-11-21T04:47:06;4.60;;;0.80;;
19812;SDS011;10066;48.108;11.448;2023-11-21T04:49:33;3.77;;;0.60;;
19812;SDS011;10066;48.108;11.448;2023-11-21T04:52:00;4.83;;;0.80;;
19812;SDS011;10066;48.108;11.448;2023-11-21T04:54:28;3.40;;;0.90;;
19812;SDS011;10066;48.108;11.448;2023-11-21T04:56:55;2.80;;;0.80;;
19812;SDS011;10066;48.108;11.448;2023-11-21T04:59:23;2.17;;;0.70;;
19812;SDS011;10066;48.108;11.448;2023-11-21T05:01:52;5.20;;;1.00;;
19812;SDS011;10066;48.108;11.448;2023-11-21T05:04:19;1.87;;;0.70;;
19812;SDS011;10066;48.108;11.448;2023-11-21T05:06:47;3.00;;;0.80;;
19812;SDS011;10066;48.108;11.448;2023-11-21T05:09:14;2.87;;;0.60;;
19812;SDS011;10066;48.108;11.448;2023-11-21T05:11:41;1.37;;;0.70;;
19812;SDS011;10066;48.108;11.448;2023-11-21T05:14:08;2.50;;;0.67;;
19812;SDS011;10066;48.108;11.448;2023-11-21T05:16:36;3.23;;;0.90;;
19812;SDS011;10066;48.108;11.448;2023-11-21T05:19:03;3.37;;;0.90;;
19812;SDS011;10066;48.108;11.448;2023-11-21T05:21:31;3.17;;;1.20;;
19812;SDS011;10066;48.108;11.448;2023-11-21T05:23:58;6.43;;;0.87;;
19812;SDS011;10066;48.108;11.448;2023-11-21T05:26:25;3.03;;;0.70;;
19812;SDS011;10066;48.108;11.448;2023-11-21T05:28:52;3.07;;;0.70;;
19812;SDS011;10066;48.108;11.448;2023-11-21T05:31:21;1.90;;;0.77;;
19812;SDS011;10066;48.108;11.448;2023-11-21T05:33:50;3.03;;;0.80;;
19812;SDS011;10066;48.108;11.448;2023-11-21T05:36:17;2.67;;;0.80;;
19812;SDS011;10066;48.108;11.448;2023-11-21T05:38:44;2.57;;;0.70;;
19812;SDS011;10066;48.108;11.448;2023-11-21T05:41:11;3.50;;;1.00;;
19812;SDS011;10066;48.108;11.448;2023-11-21T05:43:38;1.10;;;0.77;;
19812;SDS011;10066;48.108;11.448;2023-11-21T05:46:05;3.30;;;0.93;;
19812;SDS011;10066;48.108;11.448;2023-11-21T05:48:34;4.43;;;0.90;;
19812;SDS011;10066;48.108;11.448;2023-11-21T05:51:04;2.83;;;0.80;;
19812;SDS011;10066;48.108;11.448;2023-11-21T05:53:31;2.77;;;0.90;;
19812;SDS011;10066;48.108;11.448;2023-11-21T05:55:58;3.53;;;1.00;;
19812;SDS011;10066;48.108;11.448;2023-11-21T05:58:25;4.77;;;1.20;;
19812;SDS011;10066;48.108;11.448;2023-11-21T06:00:51;4.97;;;1.47;;
19812;SDS011;10066;48.108;11.448;2023-11-21T06:03:18;3.97;;;1.10;;
19812;SDS011;10066;48.108;11.448;2023-11-21T06:05:45;4.63;;;1.10;;
19812;SDS011;10066;48.108;11.448;2023-11-21T06:08:14;3.30;;;1.00;;
19812;SDS011;10066;48.108;11.448;2023-11-21T06:10:41;3.57;;;1.00;;
19812;SDS011;10066;48.108;11.448;2023-11-21T06:13:08;3.67;;;1.20;;
19812;SDS011;10066;48.108;11.448;2023-11-21T06:15:35;3.20;;;0.80;;
19812;SDS011;10066;48.108;11.448;2023-11-21T06:18:03;2.50;;;0.93;;
19812;SDS011;10066;48.108;11.448;2023-11-21T06:20:35;7.10;;;0.90;;
19812;SDS011;10066;48.108;11.448;2023-11-21T06:23:03;1.90;;;0.70;;
19812;SDS011;10066;48.108;11.448;2023-11-21T06:25:32;2.67;;;0.90;;
19812;SDS011;10066;48.108;11.448;2023-11-21T06:28:01;4.30;;;0.90;;
19812;SDS011;10066;48.108;11.448;2023-11-21T06:30:30;3.20;;;1.43;;
19812;SDS011;10066;48.108;11.448;2023-11-21T06:32:57;3.17;;;0.83;;
19812;SDS011;10066;48.108;11.448;2023-11-21T06:35:24;2.73;;;1.30;;
19812;SDS011;10066;48.108;11.448;2023-11-21T06:37:52;2.53;;;0.70;;
19812;SDS011;10066;48.108;11.448;2023-11-21T06:40:19;3.27;;;0.90;;
19812;SDS011;10066;48.108;11.448;2023-11-21T06:42:48;3.07;;;0.70;;
19812;SDS011;10066;48.108;11.448;2023-11-21T06:45:15;1.50;;;0.80;;
19812;SDS011;10066;48.108;11.448;2023-11-21T06:47:42;3.33;;;1.00;;
19812;SDS011;10066;48.108;11.448;2023-11-21T06:50:09;3.33;;;0.83;;
19812;SDS011;10066;48.108;11.448;2023-11-21T06:52:36;3.73;;;0.90;;
19812;SDS011;10066;48.108;11.448;2023-11-21T06:55:04;2.83;;;0.70;;
19812;SDS011;10066;48.108;11.448;2023-11-21T06:57:33;2.10;;;0.90;;
19812;SDS011;10066;48.108;11.448;2023-11-21T07:00:01;2.43;;;0.63;;
19812;SDS011;10066;48.108;11.448;2023-11-21T07:02:30;1.40;;;0.73;;
19812;SDS011;10066;48.108;11.448;2023-11-21T07:04:57;2.23;;;0.80;;
19812;SDS011;10066;48.108;11.448;2023-11-21T07:07:23;2.73;;;0.90;;
19812;SDS011;10066;48.108;11.448;2023-11-21T07:09:50;1.97;;;0.80;;
19812;SDS011;10066;48.108;11.448;2023-11-21T07:12:17;5.07;;;0.80;;
19812;SDS011;10066;48.108;11.448;2023-11-21T07:14:44;2.93;;;0.70;;
19812;SDS011;10066;48.108;11.448;2023-11-21T07:17:12;2.80;;;0.90;;
19812;SDS011;10066;48.108;11.448;2023-11-21T07:19:39;1.97;;;0.63;;
19812;SDS011;10066;48.108;11.448;2023-11-21T07:22:06;1.53;;;0.60;;
19812;SDS011;10066;48.108;11.448;2023-11-21T07:24:34;0.93;;;0.60;;
19812;SDS011;10066;48.108;11.448;2023-11-21T07:27:01;2.43;;;0.70;;
19812;SDS011;10066;48.108;11.448;2023-11-21T07:29:30;2.77;;;0.67;;
19812;SDS011;10066;48.108;11.448;2023-11-21T07:31:58;3.67;;;0.80;;
19812;SDS011;10066;48.108;11.448;2023-11-21T07:34:27;3.67;;;0.80;;
19812;SDS011;10066;48.108;11.448;2023-11-21T07:36:54;2.07;;;0.70;;
19812;SDS011;10066;48.108;11.448;2023-11-21T07:39:21;2.13;;;0.80;;
19812;SDS011;10066;48.108;11.448;2023-11-21T07:41:47;2.20;;;0.73;;
19812;SDS011;10066;48.108;11.448;2023-11-21T07:44:15;1.33;;;0.60;;
19812;SDS011;10066;48.108;11.448;2023-11-21T07:46:43;2.03;;;0.70;;
19812;SDS011;10066;48.108;11.448;2023-11-21T07:49:10;2.77;;;0.77;;
19812;SDS011;10066;48.108;11.448;2023-11-21T07:51:41;3.33;;;0.73;;
19812;SDS011;10066;48.108;11.448;2023-11-21T07:54:08;1.20;;;0.50;;
19812;SDS011;10066;48.108;11.448;2023-11-21T07:56:35;1.47;;;0.70;;
19812;SDS011;10066;48.108;11.448;2023-11-21T07:59:02;3.10;;;0.70;;
19812;SDS011;10066;48.108;11.448;2023-11-21T08:01:29;1.87;;;0.60;;
19812;SDS011;10066;48.108;11.448;2023-11-21T08:03:56;2.23;;;0.60;;
19812;SDS011;10066;48.108;11.448;2023-11-21T08:06:26;1.77;;;0.67;;
19812;SDS011;10066;48.108;11.448;2023-11-21T08:08:55;2.37;;;0.67;;
19812;SDS011;10066;48.108;11.448;2023-11-21T08:11:23;3.17;;;0.53;;
19812;SDS011;10066;48.108;11.448;2023-11-21T08:13:49;1.47;;;0.77;;
19812;SDS011;10066;48.108;11.448;2023-11-21T08:16:16;2.20;;;0.70;;
19812;SDS011;10066;48.108;11.448;2023-11-21T08:18:43;1.93;;;0.70;;
19812;SDS011;10066;48.108;11.448;2023-11-21T08:21:12;2.03;;;0.70;;
19812;SDS011;10066;48.108;11.448;2023-11-21T08:23:39;2.37;;;0.90;;
19812;SDS011;10066;48.108;11.448;2023-11-21T08:26:07;4.13;;;0.60;;
19812;SDS011;10066;48.108;11.448;2023-11-21T08:28:34;2.17;;;0.70;;
19812;SDS011;10066;48.108;11.448;2023-11-21T08:31:01;1.10;;;0.63;;
19812;SDS011;10066;48.108;11.448;2023-11-21T08:33:29;2.77;;;0.57;;
19812;SDS011;10066;48.108;11.448;2023-11-21T08:35:56;2.63;;;0.70;;
19812;SDS011;10066;48.108;11.448;2023-11-21T08:38:23;3.10;;;0.73;;
19812;SDS011;10066;48.108;11.448;2023-11-21T08:40:50;1.03;;;0.53;;
19812;SDS011;10066;48.108;11.448;2023-11-21T08:43:18;1.57;;;0.60;;
19812;SDS011;10066;48.108;11.448;2023-11-21T08:45:45;1.77;;;0.63;;
19812;SDS011;10066;48.108;11.448;2023-11-21T08:48:12;2.40;;;0.63;;
19812;SDS011;10066;48.108;11.448;2023-11-21T08:50:39;1.73;;;0.63;;
19812;SDS011;10066;48.108;11.448;2023-11-21T08:53:06;2.03;;;0.70;;
19812;SDS011;10066;48.108;11.448;2023-11-21T08:55:36;1.60;;;0.67;;
19812;SDS011;10066;48.108;11.448;2023-11-21T08:58:03;3.27;;;0.90;;
19812;SDS011;10066;48.108;11.448;2023-11-21T09:00:33;2.43;;;0.80;;
19812;SDS011;10066;48.108;11.448;2023-11-21T09:03:00;1.33;;;0.80;;
19812;SDS011;10066;48.108;11.448;2023-11-21T09:05:28;1.50;;;0.90;;
19812;SDS011;10066;48.108;11.448;2023-11-21T09:07:56;1.77;;;1.00;;
19812;SDS011;10066;48.108;11.448;2023-11-21T09:10:23;2.23;;;0.80;;
19812;SDS011;10066;48.108;11.448;2023-11-21T09:12:50;3.20;;;0.80;;
19812;SDS011;10066;48.108;11.448;2023-11-21T09:15:17;1.23;;;0.60;;
19812;SDS011;10066;48.108;11.448;2023-11-21T09:17:46;2.33;;;0.50;;
19812;SDS011;10066;48.108;11.448;2023-11-21T09:20:14;3.20;;;0.90;;
19812;SDS011;10066;48.108;11.448;2023-11-21T09:22:41;2.13;;;0.67;;
19812;SDS011;10066;48.108;11.448;2023-11-21T09:25:09;3.20;;;0.70;;
19812;SDS011;10066;48.108;11.448;2023-11-21T09:27:37;1.50;;;0.60;;
19812;SDS011;10066;48.108;11.448;2023-11-21T09:30:05;1.20;;;0.60;;
19812;SDS011;10066;48.108;11.448;2023-11-21T09:32:35;3.03;;;0.70;;
19812;SDS011;10066;48.108;11.448;2023-11-21T09:35:04;2.03;;;0.70;;
19812;SDS011;10066;48.108;11.448;2023-11-21T09:37:33;2.50;;;1.00;;
19812;SDS011;10066;48.108;11.448;2023-11-21T09:40:01;2.30;;;0.80;;
19812;SDS011;10066;48.108;11.448;2023-11-21T09:42:30;2.60;;;0.80;;
19812;SDS011;10066;48.108;11.448;2023-11-21T09:45:03;1.00;;;0.50;;
19812;SDS011;10066;48.108;11.448;2023-11-21T09:47:33;3.43;;;0.90;;
19812;SDS011;10066;48.108;11.448;2023-11-21T09:50:06;2.83;;;0.70;;
19812;SDS011;10066;48.108;11.448;2023-11-21T09:52:38;2.33;;;0.60;;
19812;SDS011;10066;48.108;11.448;2023-11-21T09:55:13;2.13;;;0.90;;
19812;SDS011;10066;48.108;11.448;2023-11-21T09:57:43;2.03;;;0.80;;
19812;SDS011;10066;48.108;11.448;2023-11-21T10:00:13;2.03;;;0.60;;
19812;SDS011;10066;48.108;11.448;2023-11-21T10:02:43;1.83;;;0.60;;
19812;SDS011;10066;48.108;11.448;2023-11-21T10:05:13;1.07;;;0.60;;
19812;SDS011;10066;48.108;11.448;2023-11-21T10:07:41;3.30;;;1.00;;
19812;SDS011;10066;48.108;11.448;2023-11-21T10:10:10;1.73;;;0.50;;
19812;SDS011;10066;48.108;11.448;2023-11-21T10:12:37;2.27;;;0.70;;
19812;SDS011;10066;48.108;11.448;2023-11-21T10:15:07;5.80;;;0.80;;
19812;SDS011;10066;48.108;11.448;2023-11-21T10:17:36;3.87;;;0.97;;
19812;SDS011;10066;48.108;11.448;2023-11-21T10:20:08;2.93;;;0.77;;
19812;SDS011;10066;48.108;11.448;2023-11-21T10:22:40;2.10;;;0.80;;
19812;SDS011;10066;48.108;11.448;2023-11-21T10:25:08;1.03;;;0.57;;
19812;SDS011;10066;48.108;11.448;2023-11-21T10:27:36;1.40;;;0.70;;
19812;SDS011;10066;48.108;11.448;2023-11-21T10:30:04;2.33;;;0.90;;
19812;SDS011;10066;48.108;11.448;2023-11-21T10:32:32;4.37;;;0.77;;
19812;SDS011;10066;48.108;11.448;2023-11-21T10:34:59;4.00;;;0.70;;
19812;SDS011;10066;48.108;11.448;2023-11-21T10:37:31;1.63;;;0.70;;
19812;SDS011;10066;48.108;11.448;2023-11-21T10:40:00;2.57;;;1.00;;
19812;SDS011;10066;48.108;11.448;2023-11-21T10:42:27;1.80;;;0.67;;
19812;SDS011;10066;48.108;11.448;2023-11-21T10:44:54;2.27;;;0.80;;
19812;SDS011;10066;48.108;11.448;2023-11-21T10:47:22;2.83;;;0.90;;
19812;SDS011;10066;48.108;11.448;2023-11-21T10:49:49;1.87;;;0.80;;
19812;SDS011;10066;48.108;11.448;2023-11-21T10:52:18;1.90;;;0.60;;
19812;SDS011;10066;48.108;11.448;2023-11-21T10:54:46;1.90;;;0.83;;
19812;SDS011;10066;48.108;11.448;2023-11-21T10:57:15;3.67;;;0.87;;
19812;SDS011;10066;48.108;11.448;2023-11-21T10:59:45;2.07;;;0.90;;
19812;SDS011;10066;48.108;11.448;2023-11-21T11:02:18;0.73;;;0.53;;
19812;SDS011;10066;48.108;11.448;2023-11-21T11:04:50;1.50;;;0.70;;
19812;SDS011;10066;48.108;11.448;2023-11-21T11:07:20;1.70;;;0.80;;
19812;SDS011;10066;48.108;11.448;2023-11-21T11:09:52;1.43;;;0.70;;
19812;SDS011;10066;48.108;11.448;2023-11-21T11:12:21;2.97;;;0.90;;
19812;SDS011;10066;48.108;11.448;2023-11-21T11:14:48;2.33;;;0.70;;
19812;SDS011;10066;48.108;11.448;2023-11-21T11:17:15;2.97;;;0.83;;
19812;SDS011;10066;48.108;11.448;2023-11-21T11:19:44;2.23;;;0.90;;
19812;SDS011;10066;48.108;11.448;2023-11-21T11:22:15;1.17;;;0.60;;
19812;SDS011;10066;48.108;11.448;2023-11-21T11:24:55;1.17;;;0.50;;
19812;SDS011;10066;48.108;11.448;2023-11-21T11:27:54;2.30;;;1.00;;
19812;SDS011;10066;48.108;11.448;2023-11-21T11:30:32;2.53;;;0.90;;
19812;SDS011;10066;48.108;11.448;2023-11-21T11:33:09;2.87;;;0.83;;
19812;SDS011;10066;48.108;11.448;2023-11-21T11:35:42;1.77;;;0.80;;
19812;SDS011;10066;48.108;11.448;2023-11-21T11:38:20;3.20;;;0.70;;
19812;SDS011;10066;48.108;11.448;2023-11-21T11:40:48;1.27;;;0.70;;
19812;SDS011;10066;48.108;11.448;2023-11-21T11:43:26;2.40;;;0.80;;
19812;SDS011;10066;48.108;11.448;2023-11-21T11:45:55;2.63;;;0.83;;
19812;SDS011;10066;48.108;11.448;2023-11-21T11:48:24;2.63;;;0.93;;
19812;SDS011;10066;48.108;11.448;2023-11-21T11:51:01;2.10;;;0.87;;
19812;SDS011;10066;48.108;11.448;2023-11-21T11:53:33;3.37;;;0.80;;
19812;SDS011;10066;48.108;11.448;2023-11-21T11:56:23;2.73;;;1.00;;
19812;SDS011;10066;48.108;11.448;2023-11-21T11:58:55;3.83;;;0.80;;
19812;SDS011;10066;48.108;11.448;2023-11-21T12:01:24;1.87;;;0.90;;
19812;SDS011;10066;48.108;11.448;2023-11-21T12:06:56;1.63;;;0.70;;
19812;SDS011;10066;48.108;11.448;2023-11-21T12:09:27;1.70;;;0.77;;
19812;SDS011;10066;48.108;11.448;2023-11-21T12:11:56;1.97;;;0.80;;
19812;SDS011;10066;48.108;11.448;2023-11-21T12:14:24;1.50;;;0.80;;
19812;SDS011;10066;48.108;11.448;2023-11-21T12:16:51;3.03;;;0.90;;
19812;SDS011;10066;48.108;11.448;2023-11-21T12:19:19;1.13;;;0.70;;
19812;SDS011;10066;48.108;11.448;2023-11-21T12:21:48;0.60;;;0.40;;
19812;SDS011;10066;48.108;11.448;2023-11-21T12:24:15;1.40;;;0.60;;
19812;SDS011;10066;48.108;11.448;2023-11-21T12:26:42;1.00;;;0.60;;
19812;SDS011;10066;48.108;11.448;2023-11-21T12:29:10;0.97;;;0.53;;
19812;SDS011;10066;48.108;11.448;2023-11-21T12:31:38;2.40;;;0.70;;
19812;SDS011;10066;48.108;11.448;2023-11-21T12:34:06;0.53;;;0.50;;
19812;SDS011;10066;48.108;11.448;2023-11-21T12:36:36;1.43;;;0.70;;
19812;SDS011;10066;48.108;11.448;2023-11-21T12:39:04;1.90;;;0.77;;
19812;SDS011;10066;48.108;11.448;2023-11-21T12:41:34;2.70;;;0.83;;
19812;SDS011;10066;48.108;11.448;2023-11-21T12:44:01;2.07;;;0.60;;
19812;SDS011;10066;48.108;11.448;2023-11-21T12:46:28;2.77;;;0.60;;
19812;SDS011;10066;48.108;11.448;2023-11-21T12:48:58;3.80;;;0.70;;
19812;SDS011;10066;48.108;11.448;2023-11-21T12:51:25;1.10;;;0.50;;
19812;SDS011;10066;48.108;11.448;2023-11-21T12:53:54;3.83;;;0.60;;
19812;SDS011;10066;48.108;11.448;2023-11-21T12:56:23;2.17;;;0.90;;
19812;SDS011;10066;48.108;11.448;2023-11-21T12:58:50;1.87;;;0.93;;
19812;SDS011;10066;48.108;11.448;2023-11-21T13:01:24;2.23;;;0.70;;
19812;SDS011;10066;48.108;11.448;2023-11-21T13:03:54;1.97;;;0.70;;
19812;SDS011;10066;48.108;11.448;2023-11-21T13:06:25;2.63;;;0.63;;
19812;SDS011;10066;48.108;11.448;2023-11-21T13:08:52;1.30;;;0.37;;
19812;SDS011;10066;48.108;11.448;2023-11-21T13:11:22;0.83;;;0.50;;
19812;SDS011;10066;48.108;11.448;2023-11-21T13:13:51;0.70;;;0.50;;
19812;SDS011;10066;48.108;11.448;2023-11-21T13:16:19;1.33;;;0.60;;
19812;SDS011;10066;48.108;11.448;2023-11-21T13:18:46;0.80;;;0.30;;
19812;SDS011;10066;48.108;11.448;2023-11-21T13:21:15;0.63;;;0.50;;
19812;SDS011;10066;48.108;11.448;2023-11-21T13:23:42;2.47;;;0.50;;
19812;SDS011;10066;48.108;11.448;2023-11-21T13:26:11;2.23;;;0.57;;
19812;SDS011;10066;48.108;11.448;2023-11-21T13:28:39;1.07;;;0.50;;
19812;SDS011;10066;48.108;11.448;2023-11-21T13:31:11;1.10;;;0.40;;
19812;SDS011;10066;48.108;11.448;2023-11-21T13:33:46;1.53;;;0.50;;
19812;SDS011;10066;48.108;11.448;2023-11-21T13:36:21;1.13;;;0.70;;
19812;SDS011;10066;48.108;11.448;2023-11-21T13:38:49;0.40;;;0.40;;
19812;SDS011;10066;48.108;11.448;2023-11-21T13:41:17;1.13;;;0.53;;
19812;SDS011;10066;48.108;11.448;2023-11-21T13:43:44;0.90;;;0.60;;
19812;SDS011;10066;48.108;11.448;2023-11-21T13:46:17;1.43;;;0.77;;
19812;SDS011;10066;48.108;11.448;2023-11-21T13:48:47;1.87;;;0.70;;
19812;SDS011;10066;48.108;11.448;2023-11-21T13:51:16;1.83;;;0.60;;
19812;SDS011;10066;48.108;11.448;2023-11-21T13:53:44;1.63;;;0.80;;
19812;SDS011;10066;48.108;11.448;2023-11-21T13:56:14;2.10;;;0.80;;
19812;SDS011;10066;48.108;11.448;2023-11-21T13:58:44;1.90;;;0.80;;
19812;SDS011;10066;48.108;11.448;2023-11-21T14:01:16;1.03;;;0.70;;
19812;SDS011;10066;48.108;11.448;2023-11-21T14:04:06;1.60;;;0.83;;
19812;SDS011;10066;48.108;11.448;2023-11-21T14:06:38;1.93;;;0.70;;
19812;SDS011;10066;48.108;11.448;2023-11-21T14:09:14;1.00;;;0.60;;
19812;SDS011;10066;48.108;11.448;2023-11-21T14:11:48;1.50;;;0.80;;
19812;SDS011;10066;48.108;11.448;2023-11-21T14:14:16;1.90;;;0.80;;
19812;SDS011;10066;48.108;11.448;2023-11-21T14:16:43;0.87;;;0.63;;
19812;SDS011;10066;48.108;11.448;2023-11-21T14:19:10;3.13;;;0.90;;
19812;SDS011;10066;48.108;11.448;2023-11-21T14:21:40;3.60;;;1.10;;
19812;SDS011;10066;48.108;11.448;2023-11-21T14:24:09;2.47;;;0.90;;
19812;SDS011;10066;48.108;11.448;2023-11-21T14:26:42;1.37;;;0.70;;
19812;SDS011;10066;48.108;11.448;2023-11-21T14:29:10;1.40;;;0.80;;
19812;SDS011;10066;48.108;11.448;2023-11-21T14:31:39;1.57;;;0.73;;
19812;SDS011;10066;48.108;11.448;2023-11-21T14:34:07;2.40;;;0.97;;
19812;SDS011;10066;48.108;11.448;2023-11-21T14:36:34;1.47;;;0.70;;
19812;SDS011;10066;48.108;11.448;2023-11-21T14:39:01;0.60;;;0.57;;
19812;SDS011;10066;48.108;11.448;2023-11-21T14:41:32;1.67;;;0.87;;
19812;SDS011;10066;48.108;11.448;2023-11-21T14:44:01;2.07;;;0.93;;